createdAt,value
2019-01-22T00:00:13.123Z,1016.55
2019-01-22T00:01:23.234Z,1016.55
2019-01-22T00:02:33.360Z,1016.55
2019-01-22T00:03:43.964Z,1016.53
2019-01-22T00:04:54.224Z,1016.52
2019-01-22T00:06:04.165Z,1016.54
2019-01-22T00:07:14.452Z,1016.49
2019-01-22T00:08:24.328Z,1016.48
2019-01-22T00:09:33.935Z,1016.45
2019-01-22T00:10:43.598Z,1016.46
2019-01-22T00:11:53.322Z,1016.41
2019-01-22T00:13:02.816Z,1016.42
2019-01-22T00:14:12.799Z,1016.37
2019-01-22T00:15:22.777Z,1016.36
2019-01-22T00:16:32.754Z,1016.4
2019-01-22T00:17:41.971Z,1016.35
2019-01-22T00:18:50.718Z,1016.35
2019-01-22T00:20:00.513Z,1016.29
2019-01-22T00:21:10.518Z,1016.25
2019-01-22T00:22:20.501Z,1016.22
2019-01-22T00:23:29.995Z,1016.19
2019-01-22T00:24:39.974Z,1016.25
2019-01-22T00:25:49.708Z,1016.23
2019-01-22T00:26:59.675Z,1016.2
2019-01-22T00:28:09.409Z,1016.17
2019-01-22T00:29:19.379Z,1016.1
2019-01-22T00:30:29.104Z,1016.11
2019-01-22T00:31:38.572Z,1016.08
2019-01-22T00:32:48.311Z,1016.02
2019-01-22T00:33:57.805Z,1016.01
2019-01-22T00:35:07.524Z,1015.98
2019-01-22T00:36:17.244Z,1016
2019-01-22T00:37:27.272Z,1015.96
2019-01-22T00:38:36.497Z,1015.97
2019-01-22T00:39:45.974Z,1015.95
2019-01-22T00:40:55.710Z,1015.89
2019-01-22T00:42:04.935Z,1015.91
2019-01-22T00:43:14.907Z,1015.9
2019-01-22T00:44:24.622Z,1015.88
2019-01-22T00:45:34.366Z,1015.95
2019-01-22T00:46:44.086Z,1015.88
2019-01-22T00:47:53.810Z,1015.86
2019-01-22T00:49:03.551Z,1015.8
2019-01-22T00:50:13.028Z,1015.83
2019-01-22T00:51:22.746Z,1015.84
2019-01-22T00:52:32.236Z,1015.79
2019-01-22T00:53:41.949Z,1015.83
2019-01-22T00:54:52.225Z,1015.82
2019-01-22T00:56:02.293Z,1015.78
2019-01-22T00:57:12.704Z,1015.78
2019-01-22T00:58:22.582Z,1015.78
2019-01-22T00:59:33.115Z,1015.74
2019-01-22T01:00:42.845Z,1015.74
2019-01-22T01:01:53.458Z,1015.72
2019-01-22T01:03:03.099Z,1015.66
2019-01-22T01:04:12.807Z,1015.64
2019-01-22T01:05:22.560Z,1015.63
2019-01-22T01:06:32.290Z,1015.62
2019-01-22T01:07:41.765Z,1015.64
2019-01-22T01:08:51.237Z,1015.63
2019-01-22T01:10:00.952Z,1015.6
2019-01-22T01:11:10.182Z,1015.58
2019-01-22T01:12:20.160Z,1015.62
2019-01-22T01:13:29.627Z,1015.57
2019-01-22T01:14:39.351Z,1015.58
2019-01-22T01:15:49.063Z,1015.57
2019-01-22T01:16:59.063Z,1015.53
2019-01-22T01:18:08.029Z,1015.54
2019-01-22T01:19:17.996Z,1015.52
2019-01-22T01:20:27.726Z,1015.55
2019-01-22T01:21:37.200Z,1015.58
2019-01-22T01:22:46.928Z,1015.53
2019-01-22T01:23:56.662Z,1015.55
2019-01-22T01:25:06.392Z,1015.55
2019-01-22T01:26:15.875Z,1015.56
2019-01-22T01:27:25.103Z,1015.55
2019-01-22T01:28:34.811Z,1015.53
2019-01-22T01:29:44.281Z,1015.48
2019-01-22T01:30:54.007Z,1015.48
2019-01-22T01:32:03.727Z,1015.5
2019-01-22T01:33:13.696Z,1015.49
2019-01-22T01:34:23.674Z,1015.45
2019-01-22T01:35:32.893Z,1015.44
2019-01-22T01:36:42.411Z,1015.42
2019-01-22T01:37:51.631Z,1015.38
2019-01-22T01:39:01.355Z,1015.38
2019-01-22T01:40:10.852Z,1015.35
2019-01-22T01:41:20.590Z,1015.29
2019-01-22T01:42:30.070Z,1015.3
2019-01-22T01:43:39.803Z,1015.23
2019-01-22T01:44:49.033Z,1015.23
2019-01-22T01:45:58.254Z,1015.25
2019-01-22T01:47:08.252Z,1015.2
2019-01-22T01:48:17.242Z,1015.19
2019-01-22T01:49:26.974Z,1015.18
2019-01-22T01:50:36.221Z,1015.18
2019-01-22T01:51:45.721Z,1015.12
2019-01-22T01:52:55.432Z,1015.13
2019-01-22T01:54:04.919Z,1015.08
2019-01-22T01:55:14.633Z,1015.1
2019-01-22T01:56:24.368Z,1015.06
2019-01-22T01:57:34.101Z,1015.01
2019-01-22T01:58:43.817Z,1015.04
2019-01-22T01:59:53.684Z,1014.98
2019-01-22T02:01:03.782Z,1015.01
2019-01-22T02:02:14.213Z,1014.96
2019-01-22T02:03:24.447Z,1014.92
2019-01-22T02:04:34.626Z,1014.91
2019-01-22T02:05:45.161Z,1014.93
2019-01-22T02:06:55.508Z,1014.91
2019-01-22T02:08:05.808Z,1014.88
2019-01-22T02:09:15.210Z,1014.84
2019-01-22T02:10:25.025Z,1014.85
2019-01-22T02:11:34.271Z,1014.85
2019-01-22T02:12:43.747Z,1014.84
2019-01-22T02:13:53.720Z,1014.79
2019-01-22T02:15:03.433Z,1014.83
2019-01-22T02:16:13.422Z,1014.81
2019-01-22T02:17:23.180Z,1014.78
2019-01-22T02:18:32.911Z,1014.74
2019-01-22T02:19:42.652Z,1014.71
2019-01-22T02:20:52.389Z,1014.69
2019-01-22T02:22:02.374Z,1014.7
2019-01-22T02:23:11.846Z,1014.7
2019-01-22T02:24:21.567Z,1014.63
2019-01-22T02:25:31.279Z,1014.66
2019-01-22T02:26:41.250Z,1014.65
2019-01-22T02:27:50.268Z,1014.62
2019-01-22T02:28:59.978Z,1014.58
2019-01-22T02:30:09.464Z,1014.54
2019-01-22T02:31:19.206Z,1014.57
2019-01-22T02:32:29.196Z,1014.56
2019-01-22T02:33:39.184Z,1014.5
2019-01-22T02:34:48.646Z,1014.47
2019-01-22T02:35:58.357Z,1014.43
2019-01-22T02:37:08.089Z,1014.47
2019-01-22T02:38:18.072Z,1014.43
2019-01-22T02:39:28.043Z,1014.39
2019-01-22T02:40:37.763Z,1014.37
2019-01-22T02:41:47.497Z,1014.36
2019-01-22T02:42:57.465Z,1014.37
2019-01-22T02:44:07.222Z,1014.31
2019-01-22T02:45:16.953Z,1014.27
2019-01-22T02:46:26.938Z,1014.27
2019-01-22T02:47:36.722Z,1014.24
2019-01-22T02:48:46.683Z,1014.18
2019-01-22T02:49:56.103Z,1014.19
2019-01-22T02:51:06.304Z,1014.12
2019-01-22T02:52:16.639Z,1014.09
2019-01-22T02:53:27.060Z,1014.09
2019-01-22T02:54:43.957Z,1014.01
2019-01-22T02:55:53.682Z,1013.99
2019-01-22T02:57:03.446Z,1014
2019-01-22T02:58:13.421Z,1013.95
2019-01-22T02:59:23.145Z,1013.9
2019-01-22T03:00:32.875Z,1013.89
2019-01-22T03:01:42.367Z,1013.88
2019-01-22T03:02:52.102Z,1013.85
2019-01-22T03:04:01.849Z,1013.85
2019-01-22T03:05:11.590Z,1013.89
2019-01-22T03:06:21.328Z,1013.86
2019-01-22T03:07:31.322Z,1013.85
2019-01-22T03:08:41.321Z,1013.84
2019-01-22T03:09:50.790Z,1013.81
2019-01-22T03:11:00.629Z,1013.78
2019-01-22T03:12:10.387Z,1013.71
2019-01-22T03:13:19.853Z,1013.78
2019-01-22T03:14:29.574Z,1013.74
2019-01-22T03:15:39.300Z,1013.77
2019-01-22T03:16:49.097Z,1013.73
2019-01-22T03:17:58.585Z,1013.7
2019-01-22T03:19:08.576Z,1013.69
2019-01-22T03:20:18.553Z,1013.71
2019-01-22T03:21:28.292Z,1013.66
2019-01-22T03:22:38.053Z,1013.68
2019-01-22T03:23:48.031Z,1013.66
2019-01-22T03:24:57.280Z,1013.69
2019-01-22T03:26:07.280Z,1013.62
2019-01-22T03:27:17.003Z,1013.59
2019-01-22T03:28:26.974Z,1013.6
2019-01-22T03:29:36.482Z,1013.59
2019-01-22T03:30:46.465Z,1013.56
2019-01-22T03:31:56.461Z,1013.58
2019-01-22T03:33:06.750Z,1013.62
2019-01-22T03:34:17.025Z,1013.58
2019-01-22T03:35:27.415Z,1013.61
2019-01-22T03:36:37.557Z,1013.54
2019-01-22T03:37:47.902Z,1013.55
2019-01-22T03:38:58.355Z,1013.54
2019-01-22T03:40:08.599Z,1013.46
2019-01-22T03:41:18.290Z,1013.5
2019-01-22T03:42:28.238Z,1013.57
2019-01-22T03:43:37.677Z,1013.56
2019-01-22T03:44:47.625Z,1013.56
2019-01-22T03:45:57.584Z,1013.58
2019-01-22T03:47:07.547Z,1013.56
2019-01-22T03:48:17.260Z,1013.53
2019-01-22T03:49:26.977Z,1013.52
2019-01-22T03:50:36.689Z,1013.51
2019-01-22T03:51:46.135Z,1013.49
2019-01-22T03:52:55.866Z,1013.44
2019-01-22T03:54:05.871Z,1013.47
2019-01-22T03:55:15.811Z,1013.45
2019-01-22T03:56:25.500Z,1013.44
2019-01-22T03:57:35.222Z,1013.41
2019-01-22T03:58:44.934Z,1013.44
2019-01-22T03:59:54.373Z,1013.42
2019-01-22T04:01:04.344Z,1013.41
2019-01-22T04:02:13.799Z,1013.39
2019-01-22T04:03:23.013Z,1013.38
2019-01-22T04:04:32.976Z,1013.4
2019-01-22T04:05:42.518Z,1013.38
2019-01-22T04:06:51.972Z,1013.39
2019-01-22T04:08:01.944Z,1013.36
2019-01-22T04:09:11.639Z,1013.37
2019-01-22T04:10:21.583Z,1013.36
2019-01-22T04:11:31.299Z,1013.34
2019-01-22T04:12:40.745Z,1013.33
2019-01-22T04:13:50.199Z,1013.33
2019-01-22T04:15:00.217Z,1013.32
2019-01-22T04:16:10.039Z,1013.26
2019-01-22T04:17:20.113Z,1013.26
2019-01-22T04:18:30.702Z,1013.2
2019-01-22T04:19:41.349Z,1013.18
2019-01-22T04:20:51.616Z,1013.19
2019-01-22T04:22:02.071Z,1013.19
2019-01-22T04:23:11.785Z,1013.18
2019-01-22T04:24:21.672Z,1013.16
2019-01-22T04:25:30.873Z,1013.16
2019-01-22T04:26:40.597Z,1013.13
2019-01-22T04:27:50.312Z,1013.12
2019-01-22T04:29:00.007Z,1013.13
2019-01-22T04:30:09.949Z,1013.12
2019-01-22T04:31:19.655Z,1013.11
2019-01-22T04:32:29.355Z,1013.1
2019-01-22T04:33:39.294Z,1013.08
2019-01-22T04:34:48.764Z,1013.1
2019-01-22T04:35:58.472Z,1013.07
2019-01-22T04:37:07.908Z,1013.07
2019-01-22T04:38:17.616Z,1013.06
2019-01-22T04:39:27.324Z,1013.06
2019-01-22T04:40:37.023Z,1013.01
2019-01-22T04:41:46.480Z,1012.99
2019-01-22T04:42:55.919Z,1012.99
2019-01-22T04:44:05.395Z,1012.97
2019-01-22T04:45:14.925Z,1012.95
2019-01-22T04:46:24.892Z,1012.96
2019-01-22T04:47:34.602Z,1012.97
2019-01-22T04:48:44.556Z,1012.95
2019-01-22T04:49:54.307Z,1012.92
2019-01-22T04:51:04.253Z,1012.9
2019-01-22T04:52:13.988Z,1012.9
2019-01-22T04:53:23.451Z,1012.88
2019-01-22T04:54:33.145Z,1012.86
2019-01-22T04:55:42.855Z,1012.87
2019-01-22T04:56:52.803Z,1012.88
2019-01-22T04:58:02.517Z,1012.85
2019-01-22T04:59:12.791Z,1012.89
2019-01-22T05:00:24.153Z,1012.83
2019-01-22T05:01:34.526Z,1012.81
2019-01-22T05:02:44.366Z,1012.83
2019-01-22T05:03:54.638Z,1012.81
2019-01-22T05:05:04.899Z,1012.83
2019-01-22T05:06:13.878Z,1012.77
2019-01-22T05:07:23.333Z,1012.77
2019-01-22T05:08:33.039Z,1012.73
2019-01-22T05:09:42.987Z,1012.74
2019-01-22T05:10:52.669Z,1012.76
2019-01-22T05:12:02.651Z,1012.78
2019-01-22T05:13:12.344Z,1012.76
2019-01-22T05:14:22.310Z,1012.76
2019-01-22T05:15:32.254Z,1012.78
2019-01-22T05:16:41.952Z,1012.75
2019-01-22T05:17:51.389Z,1012.71
2019-01-22T05:19:01.338Z,1012.7
2019-01-22T05:20:11.071Z,1012.7
2019-01-22T05:21:20.781Z,1012.68
2019-01-22T05:22:30.489Z,1012.66
2019-01-22T05:23:40.668Z,1012.66
2019-01-22T05:24:50.616Z,1012.65
2019-01-22T05:25:59.828Z,1012.63
2019-01-22T05:27:09.767Z,1012.64
2019-01-22T05:28:19.496Z,1012.58
2019-01-22T05:29:29.442Z,1012.56
2019-01-22T05:30:39.149Z,1012.56
2019-01-22T05:31:48.850Z,1012.58
2019-01-22T05:32:58.552Z,1012.57
2019-01-22T05:34:08.252Z,1012.51
2019-01-22T05:35:18.213Z,1012.52
2019-01-22T05:36:27.403Z,1012.5
2019-01-22T05:37:37.106Z,1012.46
2019-01-22T05:38:47.085Z,1012.48
2019-01-22T05:39:56.773Z,1012.44
2019-01-22T05:41:06.564Z,1012.45
2019-01-22T05:42:16.117Z,1012.43
2019-01-22T05:43:26.429Z,1012.41
2019-01-22T05:44:37.232Z,1012.41
2019-01-22T05:45:47.721Z,1012.35
2019-01-22T05:46:57.829Z,1012.37
2019-01-22T05:48:13.217Z,1012.38
2019-01-22T05:49:23.385Z,1012.35
2019-01-22T05:50:33.337Z,1012.33
2019-01-22T05:51:43.049Z,1012.32
2019-01-22T05:52:53.008Z,1012.37
2019-01-22T05:54:02.679Z,1012.37
2019-01-22T05:55:12.115Z,1012.3
2019-01-22T05:56:21.561Z,1012.36
2019-01-22T05:57:30.733Z,1012.34
2019-01-22T05:58:40.405Z,1012.31
2019-01-22T05:59:50.333Z,1012.31
2019-01-22T06:00:59.805Z,1012.26
2019-01-22T06:02:08.980Z,1012.23
2019-01-22T06:03:18.665Z,1012.21
2019-01-22T06:04:28.475Z,1012.16
2019-01-22T06:05:38.144Z,1012.14
2019-01-22T06:06:48.072Z,1012.13
2019-01-22T06:07:57.994Z,1012.08
2019-01-22T06:09:07.673Z,1012.05
2019-01-22T06:10:16.840Z,1012.05
2019-01-22T06:11:26.763Z,1012.03
2019-01-22T06:12:36.434Z,1012
2019-01-22T06:13:46.103Z,1012.04
2019-01-22T06:14:55.785Z,1012.01
2019-01-22T06:16:05.563Z,1011.99
2019-01-22T06:17:14.987Z,1011.98
2019-01-22T06:18:24.665Z,1011.9
2019-01-22T06:19:34.131Z,1011.89
2019-01-22T06:20:43.575Z,1011.88
2019-01-22T06:21:52.999Z,1011.92
2019-01-22T06:23:02.939Z,1011.88
2019-01-22T06:24:12.890Z,1011.88
2019-01-22T06:25:22.317Z,1011.86
2019-01-22T06:26:32.017Z,1011.88
2019-01-22T06:27:41.692Z,1011.83
2019-01-22T06:28:51.610Z,1011.82
2019-01-22T06:30:01.280Z,1011.78
2019-01-22T06:31:10.702Z,1011.77
2019-01-22T06:32:20.367Z,1011.74
2019-01-22T06:33:29.789Z,1011.75
2019-01-22T06:34:39.721Z,1011.69
2019-01-22T06:35:49.656Z,1011.7
2019-01-22T06:36:59.589Z,1011.69
2019-01-22T06:38:09.267Z,1011.67
2019-01-22T06:39:18.939Z,1011.67
2019-01-22T06:40:28.859Z,1011.62
2019-01-22T06:41:38.278Z,1011.62
2019-01-22T06:42:48.202Z,1011.6
2019-01-22T06:43:57.888Z,1011.59
2019-01-22T06:45:07.801Z,1011.61
2019-01-22T06:46:18.353Z,1011.6
2019-01-22T06:47:28.274Z,1011.56
2019-01-22T06:48:37.448Z,1011.6
2019-01-22T06:49:47.117Z,1011.54
2019-01-22T06:50:56.799Z,1011.53
2019-01-22T06:52:06.462Z,1011.53
2019-01-22T06:53:16.406Z,1011.53
2019-01-22T06:54:25.863Z,1011.55
2019-01-22T06:55:42.398Z,1011.53
2019-01-22T06:56:52.341Z,1011.56
2019-01-22T06:58:02.015Z,1011.57
2019-01-22T06:59:11.691Z,1011.55
2019-01-22T07:00:21.609Z,1011.51
2019-01-22T07:01:31.320Z,1011.54
2019-01-22T07:02:40.742Z,1011.5
2019-01-22T07:03:50.408Z,1011.45
2019-01-22T07:05:00.224Z,1011.44
2019-01-22T07:06:09.900Z,1011.47
2019-01-22T07:07:19.363Z,1011.45
2019-01-22T07:08:29.034Z,1011.41
2019-01-22T07:09:38.959Z,1011.4
2019-01-22T07:10:48.375Z,1011.39
2019-01-22T07:11:58.061Z,1011.38
2019-01-22T07:13:07.987Z,1011.35
2019-01-22T07:14:17.662Z,1011.39
2019-01-22T07:15:27.594Z,1011.36
2019-01-22T07:16:37.257Z,1011.33
2019-01-22T07:17:47.183Z,1011.33
2019-01-22T07:18:56.852Z,1011.3
2019-01-22T07:20:06.328Z,1011.32
2019-01-22T07:21:15.500Z,1011.3
2019-01-22T07:22:25.422Z,1011.26
2019-01-22T07:23:34.838Z,1011.21
2019-01-22T07:24:46.782Z,1011.21
2019-01-22T07:25:56.878Z,1011.21
2019-01-22T07:27:06.296Z,1011.2
2019-01-22T07:28:16.219Z,1011.2
2019-01-22T07:29:26.144Z,1011.21
2019-01-22T07:30:36.068Z,1011.16
2019-01-22T07:31:45.738Z,1011.18
2019-01-22T07:32:54.901Z,1011.18
2019-01-22T07:34:04.321Z,1011.15
2019-01-22T07:35:13.742Z,1011.11
2019-01-22T07:36:23.412Z,1011.13
2019-01-22T07:37:32.833Z,1011.1
2019-01-22T07:38:42.804Z,1011.08
2019-01-22T07:39:52.216Z,1011.08
2019-01-22T07:41:02.140Z,1011.04
2019-01-22T07:42:11.560Z,1011.06
2019-01-22T07:43:21.482Z,1011
2019-01-22T07:44:30.900Z,1011.07
2019-01-22T07:45:40.575Z,1011.05
2019-01-22T07:46:49.993Z,1010.99
2019-01-22T07:47:59.911Z,1011.02
2019-01-22T07:49:09.335Z,1011.05
2019-01-22T07:50:19.001Z,1011.05
2019-01-22T07:51:28.677Z,1011.03
2019-01-22T07:52:38.343Z,1010.97
2019-01-22T07:53:48.022Z,1010.99
2019-01-22T07:54:57.440Z,1010.98
2019-01-22T07:56:07.108Z,1010.93
2019-01-22T07:57:16.783Z,1010.86
2019-01-22T07:58:26.701Z,1010.91
2019-01-22T07:59:36.628Z,1010.86
2019-01-22T08:00:46.303Z,1010.85
2019-01-22T08:01:55.983Z,1010.84
2019-01-22T08:03:05.404Z,1010.81
2019-01-22T08:04:14.822Z,1010.8
2019-01-22T08:05:24.735Z,1010.76
2019-01-22T08:06:34.407Z,1010.76
2019-01-22T08:07:44.075Z,1010.75
2019-01-22T08:08:53.998Z,1010.75
2019-01-22T08:10:03.461Z,1010.71
2019-01-22T08:11:13.384Z,1010.73
2019-01-22T08:12:23.051Z,1010.67
2019-01-22T08:13:32.721Z,1010.66
2019-01-22T08:14:42.395Z,1010.63
2019-01-22T08:15:52.313Z,1010.66
2019-01-22T08:17:02.026Z,1010.64
2019-01-22T08:18:11.456Z,1010.64
2019-01-22T08:19:21.124Z,1010.63
2019-01-22T08:20:31.056Z,1010.62
2019-01-22T08:21:40.982Z,1010.61
2019-01-22T08:22:50.151Z,1010.63
2019-01-22T08:23:59.854Z,1010.63
2019-01-22T08:25:09.775Z,1010.62
2019-01-22T08:26:19.189Z,1010.54
2019-01-22T08:27:29.723Z,1010.57
2019-01-22T08:28:40.858Z,1010.54
2019-01-22T08:29:50.285Z,1010.57
2019-01-22T08:30:59.956Z,1010.51
2019-01-22T08:32:09.383Z,1010.54
2019-01-22T08:33:19.056Z,1010.5
2019-01-22T08:34:28.726Z,1010.51
2019-01-22T08:35:38.401Z,1010.51
2019-01-22T08:36:48.076Z,1010.45
2019-01-22T08:37:57.990Z,1010.48
2019-01-22T08:39:06.913Z,1010.43
2019-01-22T08:40:16.851Z,1010.43
2019-01-22T08:41:26.814Z,1010.36
2019-01-22T08:42:36.738Z,1010.34
2019-01-22T08:43:46.408Z,1010.37
2019-01-22T08:44:55.827Z,1010.33
2019-01-22T08:46:05.507Z,1010.34
2019-01-22T08:47:15.175Z,1010.33
2019-01-22T08:48:25.088Z,1010.31
2019-01-22T08:49:34.258Z,1010.33
2019-01-22T08:50:43.933Z,1010.36
2019-01-22T08:51:53.609Z,1010.38
2019-01-22T08:53:03.340Z,1010.34
2019-01-22T08:54:13.010Z,1010.35
2019-01-22T08:55:22.682Z,1010.39
2019-01-22T08:56:32.099Z,1010.36
2019-01-22T08:57:42.023Z,1010.32
2019-01-22T08:58:51.944Z,1010.32
2019-01-22T09:00:01.380Z,1010.32
2019-01-22T09:01:11.306Z,1010.27
2019-01-22T09:02:20.765Z,1010.27
2019-01-22T09:03:30.190Z,1010.26
2019-01-22T09:04:40.108Z,1010.24
2019-01-22T09:05:50.047Z,1010.27
2019-01-22T09:06:59.975Z,1010.27
2019-01-22T09:08:09.899Z,1010.27
2019-01-22T09:09:19.689Z,1010.22
2019-01-22T09:10:29.359Z,1010.19
2019-01-22T09:11:38.784Z,1010.26
2019-01-22T09:12:48.697Z,1010.19
2019-01-22T09:13:58.117Z,1010.19
2019-01-22T09:15:08.041Z,1010.11
2019-01-22T09:16:17.458Z,1010.08
2019-01-22T09:17:27.371Z,1010
2019-01-22T09:18:37.042Z,1010.01
2019-01-22T09:19:48.041Z,1009.98
2019-01-22T09:20:57.712Z,1009.98
2019-01-22T09:22:07.130Z,1009.92
2019-01-22T09:23:17.973Z,1009.86
2019-01-22T09:24:27.397Z,1009.92
2019-01-22T09:25:37.066Z,1009.92
2019-01-22T09:26:46.989Z,1009.9
2019-01-22T09:27:56.661Z,1009.86
2019-01-22T09:29:06.330Z,1009.88
2019-01-22T09:30:16.301Z,1009.84
2019-01-22T09:31:25.731Z,1009.88
2019-01-22T09:32:35.161Z,1009.9
2019-01-22T09:33:44.826Z,1009.84
2019-01-22T09:34:54.944Z,1009.84
2019-01-22T09:36:04.640Z,1009.82
2019-01-22T09:37:14.059Z,1009.81
2019-01-22T09:38:23.980Z,1009.81
2019-01-22T09:39:33.655Z,1009.8
2019-01-22T09:40:43.327Z,1009.75
2019-01-22T09:41:52.743Z,1009.73
2019-01-22T09:43:01.939Z,1009.71
2019-01-22T09:44:11.863Z,1009.73
2019-01-22T09:45:21.285Z,1009.7
2019-01-22T09:46:31.201Z,1009.65
2019-01-22T09:47:40.621Z,1009.67
2019-01-22T09:48:49.793Z,1009.64
2019-01-22T09:49:59.738Z,1009.63
2019-01-22T09:51:09.661Z,1009.65
2019-01-22T09:52:19.586Z,1009.67
2019-01-22T09:53:29.507Z,1009.65
2019-01-22T09:54:39.422Z,1009.7
2019-01-22T09:55:48.598Z,1009.65
2019-01-22T09:57:05.449Z,1009.6
2019-01-22T09:58:15.112Z,1009.58
2019-01-22T09:59:24.785Z,1009.62
2019-01-22T10:00:34.495Z,1009.58
2019-01-22T10:01:44.169Z,1009.59
2019-01-22T10:02:53.839Z,1009.54
2019-01-22T10:04:03.863Z,1009.48
2019-01-22T10:05:13.556Z,1009.46
2019-01-22T10:06:23.230Z,1009.45
2019-01-22T10:07:33.752Z,1009.43
2019-01-22T10:08:43.177Z,1009.44
2019-01-22T10:09:52.868Z,1009.41
2019-01-22T10:11:02.830Z,1009.41
2019-01-22T10:12:12.750Z,1009.45
2019-01-22T10:13:22.421Z,1009.32
2019-01-22T10:14:31.594Z,1009.38
2019-01-22T10:15:41.263Z,1009.32
2019-01-22T10:16:50.937Z,1009.31
2019-01-22T10:18:00.859Z,1009.29
2019-01-22T10:19:10.545Z,1009.25
2019-01-22T10:20:20.482Z,1009.16
2019-01-22T10:21:29.660Z,1009.18
2019-01-22T10:22:39.337Z,1009.14
2019-01-22T10:23:48.520Z,1009.14
2019-01-22T10:24:57.943Z,1009.1
2019-01-22T10:26:07.367Z,1009.03
2019-01-22T10:27:17.289Z,1009.02
2019-01-22T10:28:26.212Z,1009.03
2019-01-22T10:29:35.641Z,1008.98
2019-01-22T10:30:45.575Z,1009
2019-01-22T10:31:55.495Z,1008.98
2019-01-22T10:33:05.176Z,1008.91
2019-01-22T10:34:14.845Z,1008.89
2019-01-22T10:35:24.529Z,1008.84
2019-01-22T10:36:34.198Z,1008.86
2019-01-22T10:37:43.876Z,1008.81
2019-01-22T10:38:53.542Z,1008.81
2019-01-22T10:40:04.613Z,1008.76
2019-01-22T10:41:15.264Z,1008.79
2019-01-22T10:42:24.439Z,1008.74
2019-01-22T10:43:34.370Z,1008.7
2019-01-22T10:44:44.039Z,1008.73
2019-01-22T10:45:53.967Z,1008.74
2019-01-22T10:47:03.652Z,1008.69
2019-01-22T10:48:12.823Z,1008.71
2019-01-22T10:49:22.752Z,1008.69
2019-01-22T10:50:35.882Z,1008.72
2019-01-22T10:51:45.577Z,1008.68
2019-01-22T10:52:54.995Z,1008.72
2019-01-22T10:54:04.668Z,1008.69
2019-01-22T10:55:14.094Z,1008.69
2019-01-22T10:56:23.766Z,1008.7
2019-01-22T10:57:33.691Z,1008.68
2019-01-22T10:58:43.356Z,1008.63
2019-01-22T10:59:52.788Z,1008.62
2019-01-22T11:01:02.709Z,1008.64
2019-01-22T11:02:12.394Z,1008.59
2019-01-22T11:03:22.074Z,1008.58
2019-01-22T11:04:31.501Z,1008.55
2019-01-22T11:05:41.171Z,1008.49
2019-01-22T11:06:50.873Z,1008.47
2019-01-22T11:08:00.789Z,1008.4
2019-01-22T11:09:10.464Z,1008.36
2019-01-22T11:10:20.135Z,1008.38
2019-01-22T11:11:29.559Z,1008.39
2019-01-22T11:12:39.233Z,1008.31
2019-01-22T11:13:49.152Z,1008.32
2019-01-22T11:14:59.072Z,1008.28
2019-01-22T11:16:08.255Z,1008.32
2019-01-22T11:17:17.818Z,1008.23
2019-01-22T11:18:27.757Z,1008.21
2019-01-22T11:19:37.185Z,1008.18
2019-01-22T11:20:46.869Z,1008.15
2019-01-22T11:21:56.299Z,1008.13
2019-01-22T11:23:05.979Z,1008.12
2019-01-22T11:24:15.898Z,1008.11
2019-01-22T11:25:30.816Z,1008.12
2019-01-22T11:26:46.584Z,1008.03
2019-01-22T11:27:56.020Z,1008.08
2019-01-22T11:29:05.949Z,1007.99
2019-01-22T11:30:15.869Z,1007.9
2019-01-22T11:31:25.539Z,1007.88
2019-01-22T11:32:35.212Z,1007.83
2019-01-22T11:33:45.124Z,1007.82
2019-01-22T11:34:54.800Z,1007.86
2019-01-22T11:36:04.733Z,1007.79
2019-01-22T11:37:14.154Z,1007.75
2019-01-22T11:38:24.072Z,1007.74
2019-01-22T11:39:33.009Z,1007.73
2019-01-22T11:40:41.933Z,1007.71
2019-01-22T11:41:51.859Z,1007.65
2019-01-22T11:43:01.782Z,1007.66
2019-01-22T11:44:11.704Z,1007.66
2019-01-22T11:45:21.629Z,1007.66
2019-01-22T11:46:31.052Z,1007.62
2019-01-22T11:47:40.734Z,1007.66
2019-01-22T11:48:50.166Z,1007.58
2019-01-22T11:50:00.128Z,1007.59
2019-01-22T11:51:09.895Z,1007.49
2019-01-22T11:52:19.578Z,1007.54
2019-01-22T11:53:28.759Z,1007.54
2019-01-22T11:54:37.939Z,1007.55
2019-01-22T11:55:50.549Z,1007.51
2019-01-22T11:57:00.209Z,1007.48
2019-01-22T11:58:10.149Z,1007.5
2019-01-22T11:59:19.328Z,1007.51
2019-01-22T12:00:29.013Z,1007.41
2019-01-22T12:01:38.459Z,1007.43
2019-01-22T12:02:48.152Z,1007.45
2019-01-22T12:03:57.585Z,1007.42
2019-01-22T12:05:07.113Z,1007.38
2019-01-22T12:06:16.335Z,1007.39
2019-01-22T12:07:25.521Z,1007.4
2019-01-22T12:08:35.450Z,1007.32
2019-01-22T12:09:44.629Z,1007.31
2019-01-22T12:10:53.815Z,1007.26
2019-01-22T12:12:03.757Z,1007.26
2019-01-22T12:13:13.190Z,1007.31
2019-01-22T12:14:22.380Z,1007.18
2019-01-22T12:15:31.814Z,1007.2
2019-01-22T12:16:41.249Z,1007.12
2019-01-22T12:17:50.681Z,1007.14
2019-01-22T12:19:00.364Z,1007.1
2019-01-22T12:20:10.036Z,1007.06
2019-01-22T12:21:19.713Z,1007
2019-01-22T12:22:29.399Z,1006.95
2019-01-22T12:23:39.341Z,1006.94
2019-01-22T12:24:49.019Z,1006.89
2019-01-22T12:25:58.703Z,1006.87
2019-01-22T12:27:07.626Z,1006.89
2019-01-22T12:28:17.298Z,1006.86
2019-01-22T12:29:26.965Z,1006.83
2019-01-22T12:30:36.639Z,1006.79
2019-01-22T12:31:46.316Z,1006.82
2019-01-22T12:32:56.243Z,1006.69
2019-01-22T12:34:05.665Z,1006.79
2019-01-22T12:35:14.592Z,1006.76
2019-01-22T12:36:23.765Z,1006.77
2019-01-22T12:37:33.698Z,1006.84
2019-01-22T12:38:43.374Z,1006.78
2019-01-22T12:39:53.293Z,1006.81
2019-01-22T12:41:02.735Z,1006.75
2019-01-22T12:42:12.669Z,1006.7
2019-01-22T12:43:22.089Z,1006.67
2019-01-22T12:44:31.276Z,1006.67
2019-01-22T12:45:41.200Z,1006.58
2019-01-22T12:46:50.671Z,1006.59
2019-01-22T12:48:00.347Z,1006.56
2019-01-22T12:49:10.022Z,1006.55
2019-01-22T12:50:25.310Z,1006.5
2019-01-22T12:51:35.457Z,1006.45
2019-01-22T12:52:45.142Z,1006.47
2019-01-22T12:53:55.079Z,1006.42
2019-01-22T12:55:04.757Z,1006.32
2019-01-22T12:56:14.444Z,1006.32
2019-01-22T12:57:23.618Z,1006.27
2019-01-22T12:58:33.287Z,1006.29
2019-01-22T12:59:42.703Z,1006.29
2019-01-22T13:00:52.135Z,1006.21
2019-01-22T13:02:01.350Z,1006.18
2019-01-22T13:03:11.040Z,1006.17
2019-01-22T13:04:20.466Z,1006.18
2019-01-22T13:05:29.636Z,1006.2
2019-01-22T13:06:39.564Z,1006.17
2019-01-22T13:07:49.497Z,1006.17
2019-01-22T13:08:59.179Z,1006.11
2019-01-22T13:10:09.128Z,1006.07
2019-01-22T13:11:19.065Z,1006.08
2019-01-22T13:12:28.487Z,1006.08
2019-01-22T13:13:37.913Z,1006.08
2019-01-22T13:14:47.592Z,1006.05
2019-01-22T13:15:57.024Z,1006.01
2019-01-22T13:17:06.699Z,1006.01
2019-01-22T13:18:15.899Z,1006.02
2019-01-22T13:19:26.344Z,1005.98
2019-01-22T13:20:35.783Z,1005.96
2019-01-22T13:21:45.473Z,1005.92
2019-01-22T13:22:55.155Z,1005.91
2019-01-22T13:24:04.589Z,1005.89
2019-01-22T13:25:14.509Z,1005.86
2019-01-22T13:26:24.436Z,1005.91
2019-01-22T13:27:34.115Z,1005.8
2019-01-22T13:28:43.541Z,1005.81
2019-01-22T13:29:52.969Z,1005.78
2019-01-22T13:31:08.576Z,1005.77
2019-01-22T13:32:18.256Z,1005.71
2019-01-22T13:33:28.178Z,1005.7
2019-01-22T13:34:37.849Z,1005.69
2019-01-22T13:35:47.522Z,1005.69
2019-01-22T13:36:57.451Z,1005.67
2019-01-22T13:38:07.390Z,1005.67
2019-01-22T13:39:17.312Z,1005.69
2019-01-22T13:40:27.244Z,1005.62
2019-01-22T13:41:37.171Z,1005.58
2019-01-22T13:42:46.843Z,1005.54
2019-01-22T13:43:56.770Z,1005.55
2019-01-22T13:45:06.197Z,1005.54
2019-01-22T13:46:15.897Z,1005.49
2019-01-22T13:47:25.817Z,1005.47
2019-01-22T13:48:36.083Z,1005.41
2019-01-22T13:49:45.885Z,1005.44
2019-01-22T13:50:55.564Z,1005.42
2019-01-22T13:52:05.246Z,1005.38
2019-01-22T13:53:14.676Z,1005.43
2019-01-22T13:54:24.112Z,1005.34
2019-01-22T13:55:33.795Z,1005.31
2019-01-22T13:56:42.971Z,1005.3
2019-01-22T13:57:52.645Z,1005.25
2019-01-22T13:59:02.618Z,1005.29
2019-01-22T14:00:12.543Z,1005.21
2019-01-22T14:01:22.221Z,1005.19
2019-01-22T14:02:31.400Z,1005.18
2019-01-22T14:03:41.078Z,1005.12
2019-01-22T14:04:50.800Z,1005.17
2019-01-22T14:06:00.487Z,1005.13
2019-01-22T14:07:10.172Z,1005.14